Terminal Aerodrome Forecast
Issued by NWS Charleston, WV

Current Version | Previous Version | Text Only | Print | Product List | Glossary Off
Versions: 1 2 3 4 5 6 7 8 9 10 11 12 13 14 15 16 17 18 19 20 21 22 23 24 25 26 27 28

000
FTUS41 KRLX 260500 RRA
TAFPKB
TAF
KPKB 260542Z 2606/2706 VRB03KT 3SM -RA BR SCT005 BKN025
      TEMPO 2606/2610 2SM -RA BR BKN005
     FM261000 01004KT 5SM -RA BR OVC018
     FM261200 35005KT 4SM -SN OVC010
     FM261600 33007KT 1SM -SN OVC005
     FM262000 32008KT 6SM -SN OVC015
     FM262300 31007KT 5SM -SN BKN015=

USA.gov is the U.S. government's official web portal to all federal, state and local government web resources and services.